sensor_id;sensor_type;location;lat;lon;timestamp;temperature;humidity
30097;DHT22;16915;51.466;3.610;2024-02-21T00:00:16;9.00;99.90
30097;DHT22;16915;51.466;3.610;2024-02-21T00:02:42;9.00;99.90
30097;DHT22;16915;51.466;3.610;2024-02-21T00:05:08;8.90;99.90
30097;DHT22;16915;51.466;3.610;2024-02-21T00:07:33;8.90;99.90
30097;DHT22;16915;51.466;3.610;2024-02-21T00:09:59;8.90;99.90
30097;DHT22;16915;51.466;3.610;2024-02-21T00:12:24;8.90;99.90
30097;DHT22;16915;51.466;3.610;2024-02-21T00:14:50;8.90;99.90
30097;DHT22;16915;51.466;3.610;2024-02-21T00:17:15;8.90;99.90
30097;DHT22;16915;51.466;3.610;2024-02-21T00:19:41;8.90;99.90
30097;DHT22;16915;51.466;3.610;2024-02-21T00:22:07;8.90;99.90
30097;DHT22;16915;51.466;3.610;2024-02-21T00:24:33;8.90;99.90
30097;DHT22;16915;51.466;3.610;2024-02-21T00:26:59;8.80;99.90
30097;DHT22;16915;51.466;3.610;2024-02-21T00:29:24;8.90;99.90
30097;DHT22;16915;51.466;3.610;2024-02-21T00:31:50;8.90;99.90
30097;DHT22;16915;51.466;3.610;2024-02-21T00:34:16;8.90;99.90
30097;DHT22;16915;51.466;3.610;2024-02-21T00:36:41;8.80;99.90
30097;DHT22;16915;51.466;3.610;2024-02-21T00:39:07;8.90;99.90
30097;DHT22;16915;51.466;3.610;2024-02-21T00:41:32;8.80;99.90
30097;DHT22;16915;51.466;3.610;2024-02-21T00:43:58;8.90;99.90
30097;DHT22;16915;51.466;3.610;2024-02-21T00:46:24;8.80;99.90
30097;DHT22;16915;51.466;3.610;2024-02-21T00:48:49;8.80;99.90
30097;DHT22;16915;51.466;3.610;2024-02-21T00:51:16;8.80;99.90
30097;DHT22;16915;51.466;3.610;2024-02-21T00:53:42;8.80;99.90
30097;DHT22;16915;51.466;3.610;2024-02-21T00:56:08;8.80;99.90
30097;DHT22;16915;51.466;3.610;2024-02-21T00:58:33;8.80;99.90
30097;DHT22;16915;51.466;3.610;2024-02-21T01:01:01;8.70;99.90
30097;DHT22;16915;51.466;3.610;2024-02-21T01:03:27;8.70;99.90
30097;DHT22;16915;51.466;3.610;2024-02-21T01:05:52;8.70;99.90
30097;DHT22;16915;51.466;3.610;2024-02-21T01:08:18;8.70;99.90
30097;DHT22;16915;51.466;3.610;2024-02-21T01:10:43;8.70;99.90
30097;DHT22;16915;51.466;3.610;2024-02-21T01:13:09;8.70;99.90
30097;DHT22;16915;51.466;3.610;2024-02-21T01:15:34;8.70;99.90
30097;DHT22;16915;51.466;3.610;2024-02-21T01:18:01;8.70;99.90
30097;DHT22;16915;51.466;3.610;2024-02-21T01:20:26;8.70;99.90
30097;DHT22;16915;51.466;3.610;2024-02-21T01:22:52;8.70;99.90
30097;DHT22;16915;51.466;3.610;2024-02-21T01:25:17;8.70;99.90
30097;DHT22;16915;51.466;3.610;2024-02-21T01:27:43;8.70;99.90
30097;DHT22;16915;51.466;3.610;2024-02-21T01:30:09;8.60;99.90
30097;DHT22;16915;51.466;3.610;2024-02-21T01:32:36;8.60;99.90
30097;DHT22;16915;51.466;3.610;2024-02-21T01:35:01;8.60;99.90
30097;DHT22;16915;51.466;3.610;2024-02-21T01:37:27;8.60;99.90
30097;DHT22;16915;51.466;3.610;2024-02-21T01:39:53;8.60;99.90
30097;DHT22;16915;51.466;3.610;2024-02-21T01:42:18;8.60;99.90
30097;DHT22;16915;51.466;3.610;2024-02-21T01:44:44;8.60;99.90
30097;DHT22;16915;51.466;3.610;2024-02-21T01:47:11;8.70;99.90
30097;DHT22;16915;51.466;3.610;2024-02-21T01:49:39;8.70;99.90
30097;DHT22;16915;51.466;3.610;2024-02-21T01:52:05;8.70;99.90
30097;DHT22;16915;51.466;3.610;2024-02-21T01:54:31;8.70;99.90
30097;DHT22;16915;51.466;3.610;2024-02-21T01:56:58;8.70;99.90
30097;DHT22;16915;51.466;3.610;2024-02-21T01:59:23;8.70;99.90
30097;DHT22;16915;51.466;3.610;2024-02-21T02:01:51;8.70;99.90
30097;DHT22;16915;51.466;3.610;2024-02-21T02:04:19;8.70;99.90
30097;DHT22;16915;51.466;3.610;2024-02-21T02:06:45;8.70;99.90
30097;DHT22;16915;51.466;3.610;2024-02-21T02:09:11;8.70;99.90
30097;DHT22;16915;51.466;3.610;2024-02-21T02:11:37;8.70;99.90
30097;DHT22;16915;51.466;3.610;2024-02-21T02:14:02;8.70;99.90
30097;DHT22;16915;51.466;3.610;2024-02-21T02:16:28;8.70;99.90
30097;DHT22;16915;51.466;3.610;2024-02-21T02:18:54;8.70;99.90
30097;DHT22;16915;51.466;3.610;2024-02-21T02:21:34;8.70;99.90
30097;DHT22;16915;51.466;3.610;2024-02-21T02:24:04;8.70;99.90
30097;DHT22;16915;51.466;3.610;2024-02-21T02:26:30;8.70;99.90
30097;DHT22;16915;51.466;3.610;2024-02-21T02:28:55;8.80;99.90
30097;DHT22;16915;51.466;3.610;2024-02-21T02:31:21;8.80;99.90
30097;DHT22;16915;51.466;3.610;2024-02-21T02:33:46;8.80;99.90
30097;DHT22;16915;51.466;3.610;2024-02-21T02:36:13;8.70;99.90
30097;DHT22;16915;51.466;3.610;2024-02-21T02:38:39;8.80;99.90
30097;DHT22;16915;51.466;3.610;2024-02-21T02:41:04;8.70;99.90
30097;DHT22;16915;51.466;3.610;2024-02-21T02:43:30;8.70;99.90
30097;DHT22;16915;51.466;3.610;2024-02-21T02:45:56;8.70;99.90
30097;DHT22;16915;51.466;3.610;2024-02-21T02:48:22;8.70;99.90
30097;DHT22;16915;51.466;3.610;2024-02-21T02:50:47;8.70;99.90
30097;DHT22;16915;51.466;3.610;2024-02-21T02:53:15;8.70;99.90
30097;DHT22;16915;51.466;3.610;2024-02-21T02:55:40;8.60;99.90
30097;DHT22;16915;51.466;3.610;2024-02-21T02:58:06;8.60;99.90
30097;DHT22;16915;51.466;3.610;2024-02-21T03:00:31;8.60;99.90
30097;DHT22;16915;51.466;3.610;2024-02-21T03:03:01;8.60;99.90
30097;DHT22;16915;51.466;3.610;2024-02-21T03:05:29;8.60;99.90
30097;DHT22;16915;51.466;3.610;2024-02-21T03:07:54;8.50;99.90
30097;DHT22;16915;51.466;3.610;2024-02-21T03:10:21;8.50;99.90
30097;DHT22;16915;51.466;3.610;2024-02-21T03:12:47;8.50;99.90
30097;DHT22;16915;51.466;3.610;2024-02-21T03:15:13;8.60;99.90
30097;DHT22;16915;51.466;3.610;2024-02-21T03:17:38;8.50;99.90
30097;DHT22;16915;51.466;3.610;2024-02-21T03:20:05;8.60;99.90
30097;DHT22;16915;51.466;3.610;2024-02-21T03:22:31;8.50;99.90
30097;DHT22;16915;51.466;3.610;2024-02-21T03:24:58;8.50;99.90
30097;DHT22;16915;51.466;3.610;2024-02-21T03:27:23;8.50;99.90
30097;DHT22;16915;51.466;3.610;2024-02-21T03:29:49;8.50;99.90
30097;DHT22;16915;51.466;3.610;2024-02-21T03:32:14;8.50;99.90
30097;DHT22;16915;51.466;3.610;2024-02-21T03:34:40;8.50;99.90
30097;DHT22;16915;51.466;3.610;2024-02-21T03:37:05;8.50;99.90
30097;DHT22;16915;51.466;3.610;2024-02-21T03:39:32;8.50;99.90
30097;DHT22;16915;51.466;3.610;2024-02-21T03:41:58;8.50;99.90
30097;DHT22;16915;51.466;3.610;2024-02-21T03:44:26;8.50;99.90
30097;DHT22;16915;51.466;3.610;2024-02-21T03:46:51;8.50;99.90
30097;DHT22;16915;51.466;3.610;2024-02-21T03:49:17;8.50;99.90
30097;DHT22;16915;51.466;3.610;2024-02-21T03:51:43;8.50;99.90
30097;DHT22;16915;51.466;3.610;2024-02-21T03:54:09;8.50;99.90
30097;DHT22;16915;51.466;3.610;2024-02-21T03:56:37;8.50;99.90
30097;DHT22;16915;51.466;3.610;2024-02-21T03:59:05;8.50;99.90
30097;DHT22;16915;51.466;3.610;2024-02-21T04:01:31;8.50;99.90
30097;DHT22;16915;51.466;3.610;2024-02-21T04:03:57;8.60;99.90
30097;DHT22;16915;51.466;3.610;2024-02-21T04:06:22;8.50;99.90
30097;DHT22;16915;51.466;3.610;2024-02-21T04:08:48;8.60;99.90
30097;DHT22;16915;51.466;3.610;2024-02-21T04:11:13;8.60;99.90
30097;DHT22;16915;51.466;3.610;2024-02-21T04:13:39;8.60;99.90
30097;DHT22;16915;51.466;3.610;2024-02-21T04:16:04;8.60;99.90
30097;DHT22;16915;51.466;3.610;2024-02-21T04:18:31;8.60;99.90
30097;DHT22;16915;51.466;3.610;2024-02-21T04:20:56;8.60;99.90
30097;DHT22;16915;51.466;3.610;2024-02-21T04:23:22;8.60;99.90
30097;DHT22;16915;51.466;3.610;2024-02-21T04:25:47;8.60;99.90
30097;DHT22;16915;51.466;3.610;2024-02-21T04:28:13;8.60;99.90
30097;DHT22;16915;51.466;3.610;2024-02-21T04:30:38;8.60;99.90
30097;DHT22;16915;51.466;3.610;2024-02-21T04:33:04;8.60;99.90
30097;DHT22;16915;51.466;3.610;2024-02-21T04:35:30;8.60;99.90
30097;DHT22;16915;51.466;3.610;2024-02-21T04:37:55;8.60;99.90
30097;DHT22;16915;51.466;3.610;2024-02-21T04:40:21;8.60;99.90
30097;DHT22;16915;51.466;3.610;2024-02-21T04:42:46;8.60;99.90
30097;DHT22;16915;51.466;3.610;2024-02-21T04:45:12;8.60;99.90
30097;DHT22;16915;51.466;3.610;2024-02-21T04:47:37;8.60;99.90
30097;DHT22;16915;51.466;3.610;2024-02-21T04:50:03;8.60;99.90
30097;DHT22;16915;51.466;3.610;2024-02-21T04:52:29;8.50;99.90
30097;DHT22;16915;51.466;3.610;2024-02-21T04:54:55;8.60;99.90
30097;DHT22;16915;51.466;3.610;2024-02-21T04:57:21;8.50;99.90
30097;DHT22;16915;51.466;3.610;2024-02-21T04:59:47;8.50;99.90
30097;DHT22;16915;51.466;3.610;2024-02-21T05:02:15;8.40;99.90
30097;DHT22;16915;51.466;3.610;2024-02-21T05:04:42;8.40;99.90
30097;DHT22;16915;51.466;3.610;2024-02-21T05:07:08;8.40;99.90
30097;DHT22;16915;51.466;3.610;2024-02-21T05:09:34;8.40;99.90
30097;DHT22;16915;51.466;3.610;2024-02-21T05:11:59;8.40;99.90
30097;DHT22;16915;51.466;3.610;2024-02-21T05:14:25;8.40;99.90
30097;DHT22;16915;51.466;3.610;2024-02-21T05:16:52;8.40;99.90
30097;DHT22;16915;51.466;3.610;2024-02-21T05:19:18;8.40;99.90
30097;DHT22;16915;51.466;3.610;2024-02-21T05:21:43;8.30;99.90
30097;DHT22;16915;51.466;3.610;2024-02-21T05:24:09;8.40;99.90
30097;DHT22;16915;51.466;3.610;2024-02-21T05:26:34;8.40;99.90
30097;DHT22;16915;51.466;3.610;2024-02-21T05:29:00;8.40;99.90
30097;DHT22;16915;51.466;3.610;2024-02-21T05:31:25;8.40;99.90
30097;DHT22;16915;51.466;3.610;2024-02-21T05:33:51;8.40;99.90
30097;DHT22;16915;51.466;3.610;2024-02-21T05:36:17;8.40;99.90
30097;DHT22;16915;51.466;3.610;2024-02-21T05:38:43;8.40;99.90
30097;DHT22;16915;51.466;3.610;2024-02-21T05:41:08;8.50;99.90
30097;DHT22;16915;51.466;3.610;2024-02-21T05:43:34;8.50;99.90
30097;DHT22;16915;51.466;3.610;2024-02-21T05:45:59;8.50;99.90
30097;DHT22;16915;51.466;3.610;2024-02-21T05:48:25;8.50;99.90
30097;DHT22;16915;51.466;3.610;2024-02-21T05:50:51;8.40;99.90
30097;DHT22;16915;51.466;3.610;2024-02-21T05:53:16;8.40;99.90
30097;DHT22;16915;51.466;3.610;2024-02-21T05:55:42;8.30;99.90
30097;DHT22;16915;51.466;3.610;2024-02-21T05:58:08;8.30;99.90
30097;DHT22;16915;51.466;3.610;2024-02-21T06:00:37;8.30;99.90
30097;DHT22;16915;51.466;3.610;2024-02-21T06:03:03;8.20;99.90
30097;DHT22;16915;51.466;3.610;2024-02-21T06:05:28;8.20;99.90
30097;DHT22;16915;51.466;3.610;2024-02-21T06:07:54;8.20;99.90
30097;DHT22;16915;51.466;3.610;2024-02-21T06:10:19;8.20;99.90
30097;DHT22;16915;51.466;3.610;2024-02-21T06:12:45;8.20;99.90
30097;DHT22;16915;51.466;3.610;2024-02-21T06:15:10;8.20;99.90
30097;DHT22;16915;51.466;3.610;2024-02-21T06:17:36;8.20;99.90
30097;DHT22;16915;51.466;3.610;2024-02-21T06:20:02;8.20;99.90
30097;DHT22;16915;51.466;3.610;2024-02-21T06:22:27;8.30;99.90
30097;DHT22;16915;51.466;3.610;2024-02-21T06:24:53;8.30;99.90
30097;DHT22;16915;51.466;3.610;2024-02-21T06:27:20;8.30;99.90
30097;DHT22;16915;51.466;3.610;2024-02-21T06:29:45;8.30;99.90
30097;DHT22;16915;51.466;3.610;2024-02-21T06:32:11;8.40;99.90
30097;DHT22;16915;51.466;3.610;2024-02-21T06:34:37;8.30;99.90
30097;DHT22;16915;51.466;3.610;2024-02-21T06:37:02;8.30;99.90
30097;DHT22;16915;51.466;3.610;2024-02-21T06:39:28;8.40;99.90
30097;DHT22;16915;51.466;3.610;2024-02-21T06:41:54;8.40;99.90
30097;DHT22;16915;51.466;3.610;2024-02-21T06:44:21;8.40;99.90
30097;DHT22;16915;51.466;3.610;2024-02-21T06:46:47;8.40;99.90
30097;DHT22;16915;51.466;3.610;2024-02-21T06:49:12;8.40;99.90
30097;DHT22;16915;51.466;3.610;2024-02-21T06:51:42;8.40;99.90
30097;DHT22;16915;51.466;3.610;2024-02-21T06:54:08;8.40;99.90
30097;DHT22;16915;51.466;3.610;2024-02-21T06:56:35;8.40;99.90
30097;DHT22;16915;51.466;3.610;2024-02-21T06:59:01;8.40;99.90
30097;DHT22;16915;51.466;3.610;2024-02-21T07:01:26;8.50;99.90
30097;DHT22;16915;51.466;3.610;2024-02-21T07:03:52;8.40;99.90
30097;DHT22;16915;51.466;3.610;2024-02-21T07:06:17;8.50;99.90
30097;DHT22;16915;51.466;3.610;2024-02-21T07:08:43;8.50;99.90
30097;DHT22;16915;51.466;3.610;2024-02-21T07:11:08;8.50;99.90
30097;DHT22;16915;51.466;3.610;2024-02-21T07:13:34;8.50;99.90
30097;DHT22;16915;51.466;3.610;2024-02-21T07:15:59;8.60;99.90
30097;DHT22;16915;51.466;3.610;2024-02-21T07:18:25;8.60;99.90
30097;DHT22;16915;51.466;3.610;2024-02-21T07:20:51;8.50;99.90
30097;DHT22;16915;51.466;3.610;2024-02-21T07:23:18;8.60;99.90
30097;DHT22;16915;51.466;3.610;2024-02-21T07:25:43;8.60;99.90
30097;DHT22;16915;51.466;3.610;2024-02-21T07:28:09;8.60;99.90
30097;DHT22;16915;51.466;3.610;2024-02-21T07:30:35;8.60;99.90
30097;DHT22;16915;51.466;3.610;2024-02-21T07:33:00;8.60;99.90
30097;DHT22;16915;51.466;3.610;2024-02-21T07:35:26;8.60;99.90
30097;DHT22;16915;51.466;3.610;2024-02-21T07:37:52;8.70;99.90
30097;DHT22;16915;51.466;3.610;2024-02-21T07:40:17;8.60;99.90
30097;DHT22;16915;51.466;3.610;2024-02-21T07:42:43;8.70;99.90
30097;DHT22;16915;51.466;3.610;2024-02-21T07:45:09;8.60;99.90
30097;DHT22;16915;51.466;3.610;2024-02-21T07:47:36;8.60;99.90
30097;DHT22;16915;51.466;3.610;2024-02-21T07:50:02;8.60;99.90
30097;DHT22;16915;51.466;3.610;2024-02-21T07:52:28;8.60;99.90
30097;DHT22;16915;51.466;3.610;2024-02-21T07:54:54;8.60;99.90
30097;DHT22;16915;51.466;3.610;2024-02-21T07:57:20;8.60;99.90
30097;DHT22;16915;51.466;3.610;2024-02-21T07:59:45;8.60;99.90
30097;DHT22;16915;51.466;3.610;2024-02-21T08:02:14;8.60;99.90
30097;DHT22;16915;51.466;3.610;2024-02-21T08:04:39;8.60;99.90
30097;DHT22;16915;51.466;3.610;2024-02-21T08:07:05;8.60;99.90
30097;DHT22;16915;51.466;3.610;2024-02-21T08:09:30;8.60;99.90
30097;DHT22;16915;51.466;3.610;2024-02-21T08:11:56;8.60;99.90
30097;DHT22;16915;51.466;3.610;2024-02-21T08:14:22;8.60;99.90
30097;DHT22;16915;51.466;3.610;2024-02-21T08:16:50;8.60;99.90
30097;DHT22;16915;51.466;3.610;2024-02-21T08:19:16;8.60;99.90
30097;DHT22;16915;51.466;3.610;2024-02-21T08:21:42;8.60;99.90
30097;DHT22;16915;51.466;3.610;2024-02-21T08:24:07;8.60;99.90
30097;DHT22;16915;51.466;3.610;2024-02-21T08:26:33;8.60;99.90
30097;DHT22;16915;51.466;3.610;2024-02-21T08:28:59;8.60;99.90
30097;DHT22;16915;51.466;3.610;2024-02-21T08:31:26;8.60;99.90
30097;DHT22;16915;51.466;3.610;2024-02-21T08:33:58;8.60;99.90
30097;DHT22;16915;51.466;3.610;2024-02-21T08:36:34;8.60;99.90
30097;DHT22;16915;51.466;3.610;2024-02-21T08:39:00;8.70;99.90
30097;DHT22;16915;51.466;3.610;2024-02-21T08:41:26;8.60;99.90
30097;DHT22;16915;51.466;3.610;2024-02-21T08:43:53;8.50;99.90
30097;DHT22;16915;51.466;3.610;2024-02-21T08:46:19;8.50;99.90
30097;DHT22;16915;51.466;3.610;2024-02-21T08:48:46;8.50;99.90
30097;DHT22;16915;51.466;3.610;2024-02-21T08:51:12;8.60;99.90
30097;DHT22;16915;51.466;3.610;2024-02-21T08:53:38;8.60;99.90
30097;DHT22;16915;51.466;3.610;2024-02-21T08:56:04;8.60;99.90
30097;DHT22;16915;51.466;3.610;2024-02-21T08:58:30;8.70;99.90
30097;DHT22;16915;51.466;3.610;2024-02-21T09:00:56;8.70;99.90
30097;DHT22;16915;51.466;3.610;2024-02-21T09:03:22;8.70;99.90
30097;DHT22;16915;51.466;3.610;2024-02-21T09:05:48;8.70;99.90
30097;DHT22;16915;51.466;3.610;2024-02-21T09:08:13;8.80;99.90
30097;DHT22;16915;51.466;3.610;2024-02-21T09:10:42;8.80;99.90
30097;DHT22;16915;51.466;3.610;2024-02-21T09:13:07;8.80;99.90
30097;DHT22;16915;51.466;3.610;2024-02-21T09:15:34;8.80;99.90
30097;DHT22;16915;51.466;3.610;2024-02-21T09:17:59;8.80;99.90
30097;DHT22;16915;51.466;3.610;2024-02-21T09:20:25;8.90;99.90
30097;DHT22;16915;51.466;3.610;2024-02-21T09:22:50;8.80;99.90
30097;DHT22;16915;51.466;3.610;2024-02-21T09:25:17;8.80;99.90
30097;DHT22;16915;51.466;3.610;2024-02-21T09:27:44;8.90;99.90
30097;DHT22;16915;51.466;3.610;2024-02-21T09:30:10;8.90;99.90
30097;DHT22;16915;51.466;3.610;2024-02-21T09:32:36;8.90;99.90
30097;DHT22;16915;51.466;3.610;2024-02-21T09:35:03;9.00;99.90
30097;DHT22;16915;51.466;3.610;2024-02-21T09:37:28;9.00;99.90
30097;DHT22;16915;51.466;3.610;2024-02-21T09:39:54;9.00;99.90
30097;DHT22;16915;51.466;3.610;2024-02-21T09:42:29;9.10;99.90
30097;DHT22;16915;51.466;3.610;2024-02-21T09:44:57;9.10;99.90
30097;DHT22;16915;51.466;3.610;2024-02-21T09:47:32;9.10;99.90
30097;DHT22;16915;51.466;3.610;2024-02-21T09:50:00;9.10;99.90
30097;DHT22;16915;51.466;3.610;2024-02-21T09:52:27;9.10;99.90
30097;DHT22;16915;51.466;3.610;2024-02-21T09:54:53;9.10;99.90
30097;DHT22;16915;51.466;3.610;2024-02-21T09:57:20;9.20;99.90
30097;DHT22;16915;51.466;3.610;2024-02-21T09:59:46;9.20;99.90
30097;DHT22;16915;51.466;3.610;2024-02-21T10:02:11;9.20;99.90
30097;DHT22;16915;51.466;3.610;2024-02-21T10:04:39;9.20;99.90
30097;DHT22;16915;51.466;3.610;2024-02-21T10:07:05;9.20;99.90
30097;DHT22;16915;51.466;3.610;2024-02-21T10:09:31;9.20;99.90
30097;DHT22;16915;51.466;3.610;2024-02-21T10:12:09;9.20;99.90
30097;DHT22;16915;51.466;3.610;2024-02-21T10:14:35;9.30;99.90
30097;DHT22;16915;51.466;3.610;2024-02-21T10:17:00;9.20;99.90
30097;DHT22;16915;51.466;3.610;2024-02-21T10:19:27;9.20;99.90
30097;DHT22;16915;51.466;3.610;2024-02-21T10:22:03;9.20;99.90
30097;DHT22;16915;51.466;3.610;2024-02-21T10:24:30;9.30;99.90
30097;DHT22;16915;51.466;3.610;2024-02-21T10:27:04;9.30;99.90
30097;DHT22;16915;51.466;3.610;2024-02-21T10:29:30;9.30;99.90
30097;DHT22;16915;51.466;3.610;2024-02-21T10:32:09;9.30;99.90
30097;DHT22;16915;51.466;3.610;2024-02-21T10:34:36;9.30;99.90
30097;DHT22;16915;51.466;3.610;2024-02-21T10:37:02;9.40;99.90
30097;DHT22;16915;51.466;3.610;2024-02-21T10:39:32;9.50;99.90
30097;DHT22;16915;51.466;3.610;2024-02-21T10:42:00;9.50;99.90
30097;DHT22;16915;51.466;3.610;2024-02-21T10:44:30;9.50;99.90
30097;DHT22;16915;51.466;3.610;2024-02-21T10:46:57;9.50;99.90
30097;DHT22;16915;51.466;3.610;2024-02-21T10:49:23;9.60;99.90
30097;DHT22;16915;51.466;3.610;2024-02-21T10:54:56;9.70;99.90
30097;DHT22;16915;51.466;3.610;2024-02-21T10:57:25;9.80;99.90
30097;DHT22;16915;51.466;3.610;2024-02-21T10:59:53;9.80;99.90
30097;DHT22;16915;51.466;3.610;2024-02-21T11:02:19;9.80;99.90
30097;DHT22;16915;51.466;3.610;2024-02-21T11:04:46;9.80;99.90
30097;DHT22;16915;51.466;3.610;2024-02-21T11:07:12;9.80;99.90
30097;DHT22;16915;51.466;3.610;2024-02-21T11:09:38;9.80;99.90
30097;DHT22;16915;51.466;3.610;2024-02-21T11:12:05;9.80;99.90
30097;DHT22;16915;51.466;3.610;2024-02-21T11:14:31;9.80;99.90
30097;DHT22;16915;51.466;3.610;2024-02-21T11:17:18;9.70;99.90
30097;DHT22;16915;51.466;3.610;2024-02-21T11:19:44;9.70;99.90
30097;DHT22;16915;51.466;3.610;2024-02-21T11:22:17;9.70;99.90
30097;DHT22;16915;51.466;3.610;2024-02-21T11:24:42;9.60;99.90
30097;DHT22;16915;51.466;3.610;2024-02-21T11:27:22;9.70;99.90
30097;DHT22;16915;51.466;3.610;2024-02-21T11:29:57;9.70;99.90
30097;DHT22;16915;51.466;3.610;2024-02-21T11:32:25;9.60;99.90
30097;DHT22;16915;51.466;3.610;2024-02-21T11:35:01;9.60;99.90
30097;DHT22;16915;51.466;3.610;2024-02-21T11:37:29;9.60;99.90
30097;DHT22;16915;51.466;3.610;2024-02-21T11:39:55;9.60;99.90
30097;DHT22;16915;51.466;3.610;2024-02-21T11:42:21;9.60;99.90
30097;DHT22;16915;51.466;3.610;2024-02-21T11:44:48;9.60;99.90
30097;DHT22;16915;51.466;3.610;2024-02-21T11:47:14;9.60;99.90
30097;DHT22;16915;51.466;3.610;2024-02-21T11:49:45;9.70;99.90
30097;DHT22;16915;51.466;3.610;2024-02-21T11:52:11;9.60;99.90
30097;DHT22;16915;51.466;3.610;2024-02-21T11:54:37;9.60;99.90
30097;DHT22;16915;51.466;3.610;2024-02-21T11:57:03;9.60;99.90
30097;DHT22;16915;51.466;3.610;2024-02-21T11:59:32;9.60;99.90
30097;DHT22;16915;51.466;3.610;2024-02-21T12:01:59;9.50;99.90
30097;DHT22;16915;51.466;3.610;2024-02-21T12:04:25;9.50;99.90
30097;DHT22;16915;51.466;3.610;2024-02-21T12:06:52;9.50;99.90
30097;DHT22;16915;51.466;3.610;2024-02-21T12:09:18;9.50;99.90
30097;DHT22;16915;51.466;3.610;2024-02-21T12:11:45;9.50;99.90
30097;DHT22;16915;51.466;3.610;2024-02-21T12:14:16;9.60;99.90
30097;DHT22;16915;51.466;3.610;2024-02-21T12:16:41;9.60;99.90
30097;DHT22;16915;51.466;3.610;2024-02-21T12:19:07;9.50;99.90
30097;DHT22;16915;51.466;3.610;2024-02-21T12:21:34;9.50;99.90
30097;DHT22;16915;51.466;3.610;2024-02-21T12:26:38;9.60;99.90
30097;DHT22;16915;51.466;3.610;2024-02-21T12:29:04;9.50;99.90
30097;DHT22;16915;51.466;3.610;2024-02-21T12:31:29;9.50;99.90
30097;DHT22;16915;51.466;3.610;2024-02-21T12:33:55;9.60;99.90
30097;DHT22;16915;51.466;3.610;2024-02-21T12:36:20;9.60;99.90
30097;DHT22;16915;51.466;3.610;2024-02-21T12:38:47;9.60;99.90
30097;DHT22;16915;51.466;3.610;2024-02-21T13:58:47;8.80;99.90
30097;DHT22;16915;51.466;3.610;2024-02-21T14:01:13;8.70;99.90
30097;DHT22;16915;51.466;3.610;2024-02-21T14:03:38;8.80;99.90
30097;DHT22;16915;51.466;3.610;2024-02-21T14:06:04;8.80;99.90
30097;DHT22;16915;51.466;3.610;2024-02-21T14:08:30;8.80;99.90
30097;DHT22;16915;51.466;3.610;2024-02-21T14:10:56;8.80;99.90
30097;DHT22;16915;51.466;3.610;2024-02-21T14:13:24;8.80;99.90
30097;DHT22;16915;51.466;3.610;2024-02-21T14:15:50;8.80;99.90
30097;DHT22;16915;51.466;3.610;2024-02-21T14:18:15;8.80;99.90
30097;DHT22;16915;51.466;3.610;2024-02-21T14:20:42;8.80;99.90
30097;DHT22;16915;51.466;3.610;2024-02-21T14:23:07;8.80;99.90
30097;DHT22;16915;51.466;3.610;2024-02-21T14:25:33;8.80;99.90
30097;DHT22;16915;51.466;3.610;2024-02-21T14:27:59;8.80;99.90
30097;DHT22;16915;51.466;3.610;2024-02-21T14:30:26;8.80;99.90
30097;DHT22;16915;51.466;3.610;2024-02-21T14:32:52;8.80;99.90
30097;DHT22;16915;51.466;3.610;2024-02-21T14:35:17;8.80;99.90
30097;DHT22;16915;51.466;3.610;2024-02-21T14:37:43;8.80;99.90
30097;DHT22;16915;51.466;3.610;2024-02-21T14:40:09;8.80;99.90
30097;DHT22;16915;51.466;3.610;2024-02-21T14:42:34;8.80;99.90
30097;DHT22;16915;51.466;3.610;2024-02-21T14:45:00;8.80;99.90
30097;DHT22;16915;51.466;3.610;2024-02-21T14:47:38;8.80;99.90
30097;DHT22;16915;51.466;3.610;2024-02-21T14:50:04;8.80;99.90
30097;DHT22;16915;51.466;3.610;2024-02-21T14:52:30;8.80;99.90
30097;DHT22;16915;51.466;3.610;2024-02-21T14:54:56;8.80;99.90
30097;DHT22;16915;51.466;3.610;2024-02-21T14:57:22;8.80;99.90
30097;DHT22;16915;51.466;3.610;2024-02-21T14:59:48;8.80;99.90
30097;DHT22;16915;51.466;3.610;2024-02-21T15:02:15;8.80;99.90
30097;DHT22;16915;51.466;3.610;2024-02-21T15:04:41;8.80;99.90
30097;DHT22;16915;51.466;3.610;2024-02-21T15:07:06;8.90;99.90
30097;DHT22;16915;51.466;3.610;2024-02-21T15:09:32;8.80;99.90
30097;DHT22;16915;51.466;3.610;2024-02-21T15:11:58;8.90;99.90
30097;DHT22;16915;51.466;3.610;2024-02-21T15:14:24;8.80;99.90
30097;DHT22;16915;51.466;3.610;2024-02-21T15:16:49;8.90;99.90
30097;DHT22;16915;51.466;3.610;2024-02-21T15:19:15;8.90;99.90
30097;DHT22;16915;51.466;3.610;2024-02-21T15:21:40;8.90;99.90
30097;DHT22;16915;51.466;3.610;2024-02-21T15:24:06;8.90;99.90
30097;DHT22;16915;51.466;3.610;2024-02-21T15:26:32;8.90;99.90
30097;DHT22;16915;51.466;3.610;2024-02-21T15:28:57;8.80;99.90
30097;DHT22;16915;51.466;3.610;2024-02-21T15:31:23;8.80;99.90
30097;DHT22;16915;51.466;3.610;2024-02-21T15:33:52;8.80;99.90
30097;DHT22;16915;51.466;3.610;2024-02-21T15:36:18;8.90;99.90
30097;DHT22;16915;51.466;3.610;2024-02-21T15:38:45;8.80;99.90
30097;DHT22;16915;51.466;3.610;2024-02-21T15:41:12;8.80;99.90
30097;DHT22;16915;51.466;3.610;2024-02-21T15:43:39;8.80;99.90
30097;DHT22;16915;51.466;3.610;2024-02-21T15:46:07;8.80;99.90
30097;DHT22;16915;51.466;3.610;2024-02-21T15:48:33;8.80;99.90
30097;DHT22;16915;51.466;3.610;2024-02-21T15:51:00;8.80;99.90
30097;DHT22;16915;51.466;3.610;2024-02-21T15:53:26;8.80;99.90
30097;DHT22;16915;51.466;3.610;2024-02-21T15:55:52;8.80;99.90
30097;DHT22;16915;51.466;3.610;2024-02-21T15:58:17;8.80;99.90
30097;DHT22;16915;51.466;3.610;2024-02-21T16:00:45;8.80;99.90
30097;DHT22;16915;51.466;3.610;2024-02-21T16:03:11;8.80;99.90
30097;DHT22;16915;51.466;3.610;2024-02-21T16:05:37;8.80;99.90
30097;DHT22;16915;51.466;3.610;2024-02-21T16:08:02;8.90;99.90
30097;DHT22;16915;51.466;3.610;2024-02-21T16:10:29;8.90;99.90
30097;DHT22;16915;51.466;3.610;2024-02-21T16:12:54;8.80;99.90
30097;DHT22;16915;51.466;3.610;2024-02-21T16:15:20;8.90;99.90
30097;DHT22;16915;51.466;3.610;2024-02-21T16:17:45;8.90;99.90
30097;DHT22;16915;51.466;3.610;2024-02-21T16:20:12;8.90;99.90
30097;DHT22;16915;51.466;3.610;2024-02-21T16:22:41;8.90;99.90
30097;DHT22;16915;51.466;3.610;2024-02-21T16:25:07;8.90;99.90
30097;DHT22;16915;51.466;3.610;2024-02-21T16:27:34;8.90;99.90
30097;DHT22;16915;51.466;3.610;2024-02-21T16:29:59;8.90;99.90
30097;DHT22;16915;51.466;3.610;2024-02-21T16:32:25;8.90;99.90
30097;DHT22;16915;51.466;3.610;2024-02-21T16:34:53;8.90;99.90
30097;DHT22;16915;51.466;3.610;2024-02-21T16:37:18;8.90;99.90
30097;DHT22;16915;51.466;3.610;2024-02-21T16:39:44;8.90;99.90
30097;DHT22;16915;51.466;3.610;2024-02-21T16:42:09;8.90;99.90
30097;DHT22;16915;51.466;3.610;2024-02-21T16:44:36;8.90;99.90
30097;DHT22;16915;51.466;3.610;2024-02-21T16:47:01;8.90;99.90
30097;DHT22;16915;51.466;3.610;2024-02-21T16:49:28;8.90;99.90
30097;DHT22;16915;51.466;3.610;2024-02-21T16:51:55;9.00;99.90
30097;DHT22;16915;51.466;3.610;2024-02-21T16:54:24;9.00;99.90
30097;DHT22;16915;51.466;3.610;2024-02-21T16:56:53;9.00;99.90
30097;DHT22;16915;51.466;3.610;2024-02-21T16:59:19;9.00;99.90
30097;DHT22;16915;51.466;3.610;2024-02-21T17:01:45;9.00;99.90